createdAt,value
2019-05-07T00:01:03.973Z,6.64
2019-05-07T00:06:09.114Z,6.66
2019-05-07T00:11:13.836Z,6.74
2019-05-07T00:16:17.997Z,6.70
2019-05-07T00:21:23.586Z,6.61
2019-05-07T00:26:28.491Z,6.52
2019-05-07T00:31:33.764Z,6.36
2019-05-07T00:36:38.477Z,6.19
2019-05-07T00:41:42.856Z,6.23
2019-05-07T00:46:47.206Z,6.17
2019-05-07T00:51:53.352Z,6.21
2019-05-07T00:56:59.146Z,6.31
2019-05-07T01:02:04.964Z,6.42
2019-05-07T01:07:12.207Z,6.44
2019-05-07T01:12:17.912Z,6.52
2019-05-07T01:17:24.305Z,6.50
2019-05-07T01:32:53.736Z,6.46
2019-05-07T01:37:58.444Z,6.37
2019-05-07T01:43:02.960Z,6.20
2019-05-07T01:48:07.673Z,6.26
2019-05-07T01:53:12.358Z,6.22
2019-05-07T01:58:16.657Z,6.13
2019-05-07T02:03:23.041Z,6.06
2019-05-07T02:08:26.899Z,6.02
2019-05-07T02:13:31.148Z,6.00
2019-05-07T02:18:35.309Z,5.99
2019-05-07T02:23:39.415Z,6.06
2019-05-07T02:28:43.555Z,6.05
2019-05-07T02:33:48.150Z,6.04
2019-05-07T02:38:53.226Z,6.01
2019-05-07T02:44:00.039Z,5.96
2019-05-07T02:49:03.504Z,5.99
2019-05-07T02:54:07.753Z,6.01
2019-05-07T02:59:13.735Z,6.02
2019-05-07T03:04:18.297Z,6.02
2019-05-07T03:09:22.898Z,6.05
2019-05-07T03:14:27.097Z,6.10
2019-05-07T03:19:33.176Z,6.12
2019-05-07T03:24:37.319Z,6.18
2019-05-07T03:29:44.268Z,6.31
2019-05-07T03:34:47.934Z,6.21
2019-05-07T03:39:53.760Z,6.18
2019-05-07T03:44:59.388Z,6.13
2019-05-07T03:50:04.100Z,6.26
2019-05-07T03:55:09.090Z,6.27
2019-05-07T04:00:14.297Z,6.38
2019-05-07T04:05:22.929Z,6.10
2019-05-07T04:10:26.044Z,6.17
2019-05-07T04:15:33.066Z,6.42
2019-05-07T04:20:36.777Z,6.62
2019-05-07T04:25:43.574Z,6.73
2019-05-07T04:30:46.888Z,6.66
2019-05-07T04:35:53.818Z,6.40
2019-05-07T04:40:57.129Z,6.26
2019-05-07T04:46:03.189Z,6.48
2019-05-07T04:51:07.251Z,6.46
2019-05-07T04:56:14.022Z,6.26
2019-05-07T05:01:17.710Z,6.48
2019-05-07T05:06:24.196Z,6.62
2019-05-07T05:11:28.012Z,6.71
2019-05-07T05:16:32.741Z,6.78
2019-05-07T05:21:37.735Z,6.80
2019-05-07T05:26:42.034Z,6.82
2019-05-07T05:31:46.549Z,6.76
2019-05-07T05:36:53.176Z,6.80
2019-05-07T05:41:57.486Z,6.71
2019-05-07T05:47:02.376Z,6.82
2019-05-07T05:52:07.082Z,6.92
2019-05-07T05:57:12.255Z,7.11
2019-05-07T06:02:16.774Z,7.19
2019-05-07T06:07:22.666Z,7.24
2019-05-07T06:12:27.066Z,7.41
2019-05-07T06:17:32.101Z,7.67
2019-05-07T06:22:36.553Z,7.98
2019-05-07T06:27:41.786Z,8.20
2019-05-07T06:32:46.154Z,8.43
2019-05-07T06:37:52.177Z,8.63
2019-05-07T06:42:56.848Z,8.63
2019-05-07T06:48:02.975Z,8.71
2019-05-07T06:53:06.989Z,8.80
2019-05-07T06:58:12.334Z,8.78
2019-05-07T07:03:16.715Z,8.86
2019-05-07T07:08:22.967Z,9.04
2019-05-07T07:13:28.535Z,9.35
2019-05-07T07:18:33.026Z,9.46
2019-05-07T07:23:37.203Z,9.24
2019-05-07T07:28:42.950Z,9.12
2019-05-07T07:33:47.601Z,9.31
2019-05-07T07:38:52.697Z,9.50
2019-05-07T07:43:57.232Z,9.38
2019-05-07T07:49:10.228Z,9.75
2019-05-07T07:54:07.756Z,9.84
2019-05-07T07:59:12.647Z,9.65
2019-05-07T08:04:17.060Z,9.69
2019-05-07T08:09:23.977Z,9.66
2019-05-07T08:14:27.330Z,9.50
2019-05-07T08:19:32.787Z,9.86
2019-05-07T08:24:37.378Z,9.64
2019-05-07T08:29:43.861Z,9.86
2019-05-07T08:34:52.135Z,9.81
2019-05-07T08:39:56.397Z,9.85
2019-05-07T08:45:02.760Z,9.81
2019-05-07T08:50:07.464Z,9.91
2019-05-07T08:55:12.711Z,9.90
2019-05-07T09:00:18.671Z,9.91
2019-05-07T09:05:23.112Z,9.80
2019-05-07T09:10:27.508Z,10.03
2019-05-07T09:15:32.121Z,10.34
2019-05-07T09:20:36.592Z,10.38
2019-05-07T09:25:41.635Z,10.55
2019-05-07T09:30:46.155Z,10.24
2019-05-07T09:35:52.693Z,10.48
2019-05-07T09:40:57.133Z,10.68
2019-05-07T09:46:02.714Z,10.46
2019-05-07T09:51:07.892Z,10.62
2019-05-07T09:56:12.423Z,10.71
2019-05-07T10:01:16.831Z,10.55
2019-05-07T10:06:22.905Z,10.49
2019-05-07T10:11:27.536Z,10.57
2019-05-07T10:16:33.494Z,10.84
2019-05-07T10:21:37.977Z,10.82
2019-05-07T10:26:43.477Z,10.91
2019-05-07T10:31:47.851Z,10.96
2019-05-07T10:36:52.657Z,11.04
2019-05-07T10:41:57.896Z,11.03
2019-05-07T10:47:03.306Z,11.12
2019-05-07T10:52:07.597Z,11.07
2019-05-07T10:57:12.002Z,10.96
2019-05-07T11:02:16.334Z,11.17
2019-05-07T11:07:22.250Z,11.08
2019-05-07T11:12:27.016Z,11.36
2019-05-07T11:17:32.679Z,11.23
2019-05-07T11:22:37.412Z,11.10
2019-05-07T11:27:42.190Z,11.17
2019-05-07T11:32:46.697Z,11.07
2019-05-07T11:37:52.014Z,11.00
2019-05-07T11:42:56.633Z,11.03
2019-05-07T11:48:01.969Z,11.13
2019-05-07T11:53:07.952Z,11.92
2019-05-07T11:58:12.845Z,12.08
2019-05-07T12:03:17.207Z,12.08
2019-05-07T12:08:26.512Z,12.00
2019-05-07T12:13:27.985Z,11.87
2019-05-07T12:18:35.801Z,12.14
2019-05-07T12:23:42.025Z,11.96
2019-05-07T12:28:46.447Z,12.07
2019-05-07T12:33:52.161Z,11.98
2019-05-07T12:38:56.539Z,11.98
2019-05-07T12:44:03.152Z,11.83
2019-05-07T12:49:07.601Z,11.79
2019-05-07T12:54:12.062Z,11.79
2019-05-07T12:59:16.664Z,11.99
2019-05-07T13:04:22.100Z,11.99
2019-05-07T13:09:26.468Z,11.62
2019-05-07T13:14:30.777Z,11.59
2019-05-07T13:19:35.054Z,11.40
2019-05-07T13:24:39.756Z,11.20
2019-05-07T13:29:44.976Z,11.16
2019-05-07T13:34:51.893Z,11.19
2019-05-07T13:39:55.419Z,11.32
2019-05-07T13:45:00.111Z,11.57
2019-05-07T13:50:06.126Z,11.57
2019-05-07T13:55:12.850Z,11.63
2019-05-07T14:00:18.580Z,11.72
2019-05-07T14:05:24.868Z,11.76
2019-05-07T14:10:29.164Z,11.85
2019-05-07T14:15:35.054Z,12.04
2019-05-07T14:20:39.429Z,12.30
2019-05-07T14:25:44.546Z,12.44
2019-05-07T14:30:48.901Z,12.12
2019-05-07T14:35:53.853Z,11.91
2019-05-07T14:41:00.113Z,11.69
2019-05-07T14:46:04.902Z,11.69
2019-05-07T14:51:09.293Z,11.73
2019-05-07T14:56:14.282Z,11.61
2019-05-07T15:01:18.883Z,11.81
2019-05-07T15:06:23.425Z,11.78
2019-05-07T15:11:27.881Z,11.66
2019-05-07T15:16:32.316Z,11.38
2019-05-07T15:21:36.680Z,10.74
2019-05-07T15:26:42.014Z,10.74
2019-05-07T15:31:46.421Z,10.46
2019-05-07T15:36:52.711Z,10.23
2019-05-07T15:41:57.298Z,10.27
2019-05-07T15:47:02.585Z,10.41
2019-05-07T15:52:07.842Z,10.63
2019-05-07T15:57:12.691Z,10.97
2019-05-07T16:02:17.120Z,10.96
2019-05-07T16:07:22.517Z,10.85
2019-05-07T16:12:26.911Z,10.64
2019-05-07T16:17:32.851Z,10.68
2019-05-07T16:22:39.054Z,10.54
2019-05-07T16:27:43.344Z,10.67
2019-05-07T16:32:47.979Z,10.40
2019-05-07T16:37:52.484Z,10.22
2019-05-07T16:42:56.758Z,10.11
2019-05-07T16:48:03.037Z,10.05
2019-05-07T16:53:06.718Z,9.97
2019-05-07T16:58:12.530Z,9.92
2019-05-07T17:03:16.806Z,9.76
2019-05-07T17:08:23.651Z,9.83
2019-05-07T17:13:27.877Z,9.77
2019-05-07T17:18:32.784Z,9.67
2019-05-07T17:23:44.617Z,9.63
2019-05-07T17:28:45.311Z,9.67
2019-05-07T17:33:51.567Z,9.53
2019-05-07T17:38:55.711Z,9.42
2019-05-07T17:43:59.990Z,9.21
2019-05-07T17:49:06.698Z,9.17
2019-05-07T17:54:12.855Z,9.00
2019-05-07T17:59:16.818Z,8.95
2019-05-07T18:04:21.098Z,8.97
2019-05-07T18:09:25.449Z,8.87
2019-05-07T18:14:32.208Z,8.91
2019-05-07T18:19:37.637Z,8.82
2019-05-07T18:24:41.977Z,8.86
2019-05-07T18:29:46.285Z,8.84
2019-05-07T18:34:51.909Z,8.89
2019-05-07T18:39:56.258Z,8.75
2019-05-07T18:45:02.137Z,8.71
2019-05-07T18:50:12.678Z,8.71
2019-05-07T18:55:14.730Z,8.73
2019-05-07T19:00:22.020Z,8.70
2019-05-07T19:05:25.912Z,8.71
2019-05-07T19:10:30.104Z,8.72
2019-05-07T19:15:34.412Z,8.74
2019-05-07T19:20:42.172Z,8.77
2019-05-07T19:25:47.438Z,8.83
2019-05-07T19:30:52.853Z,8.90
2019-05-07T19:35:59.038Z,8.91
2019-05-07T19:41:04.618Z,8.97
2019-05-07T19:46:08.792Z,9.09
2019-05-07T19:51:12.812Z,9.18
2019-05-07T19:56:17.051Z,9.29
2019-05-07T20:01:22.792Z,9.44
2019-05-07T20:06:27.038Z,9.54
2019-05-07T20:11:32.668Z,9.64
2019-05-07T20:16:37.151Z,9.81
2019-05-07T20:21:42.613Z,10.04
2019-05-07T20:26:47.851Z,10.18
2019-05-07T20:31:53.523Z,10.25
2019-05-07T20:37:02.056Z,10.26
2019-05-07T20:42:08.165Z,10.28
2019-05-07T20:47:12.812Z,10.29
2019-05-07T20:52:17.352Z,10.13
2019-05-07T20:57:23.178Z,10.01
2019-05-07T21:02:41.688Z,9.98
2019-05-07T21:07:34.798Z,10.02
2019-05-07T21:12:38.951Z,10.02
2019-05-07T21:17:45.839Z,9.96
2019-05-07T21:22:51.908Z,9.94
2019-05-07T21:27:58.424Z,9.92
2019-05-07T21:33:02.611Z,9.99
2019-05-07T21:38:07.299Z,9.93
2019-05-07T21:43:14.180Z,10.03
2019-05-07T21:48:18.251Z,9.98
2019-05-07T21:53:22.944Z,9.96
2019-05-07T21:58:27.303Z,9.97
2019-05-07T22:03:32.432Z,10.05
2019-05-07T22:08:37.272Z,10.05
2019-05-07T22:13:43.485Z,10.07
2019-05-07T22:18:48.863Z,10.07
2019-05-07T22:23:53.031Z,10.05
2019-05-07T22:28:58.511Z,10.07
2019-05-07T22:34:03.143Z,9.99
2019-05-07T22:39:07.810Z,9.97
2019-05-07T22:44:12.123Z,9.99
2019-05-07T22:49:16.457Z,9.87
2019-05-07T22:54:22.398Z,9.88
2019-05-07T22:59:26.263Z,9.96
2019-05-07T23:04:32.447Z,9.94
2019-05-07T23:09:36.677Z,9.91
2019-05-07T23:14:41.211Z,9.81
2019-05-07T23:19:45.291Z,9.90
2019-05-07T23:24:51.873Z,9.95
2019-05-07T23:29:55.779Z,9.81
2019-05-07T23:35:02.503Z,9.64
2019-05-07T23:40:08.243Z,9.54
2019-05-07T23:45:13.722Z,9.45
2019-05-07T23:50:17.891Z,9.37
2019-05-07T23:55:23.783Z,9.37
